sensor_id;sensor_type;location;lat;lon;timestamp;temperature;humidity
33476;DHT22;19814;48.224;11.422;2023-04-09T00:01:55;5.60;99.90
33476;DHT22;19814;48.224;11.422;2023-04-09T00:04:21;5.40;99.90
33476;DHT22;19814;48.224;11.422;2023-04-09T00:06:48;5.50;99.90
33476;DHT22;19814;48.224;11.422;2023-04-09T00:09:13;5.50;99.90
33476;DHT22;19814;48.224;11.422;2023-04-09T00:11:39;5.50;99.90
33476;DHT22;19814;48.224;11.422;2023-04-09T00:14:04;5.60;99.90
33476;DHT22;19814;48.224;11.422;2023-04-09T00:16:30;5.60;99.90
33476;DHT22;19814;48.224;11.422;2023-04-09T00:18:56;5.60;99.90
33476;DHT22;19814;48.224;11.422;2023-04-09T00:21:21;5.50;99.90
33476;DHT22;19814;48.224;11.422;2023-04-09T00:23:47;5.40;99.90
33476;DHT22;19814;48.224;11.422;2023-04-09T00:26:12;5.40;99.90
33476;DHT22;19814;48.224;11.422;2023-04-09T00:28:38;5.40;99.90
33476;DHT22;19814;48.224;11.422;2023-04-09T00:31:03;5.40;99.90
33476;DHT22;19814;48.224;11.422;2023-04-09T00:33:29;5.40;99.90
33476;DHT22;19814;48.224;11.422;2023-04-09T00:35:55;5.40;99.90
33476;DHT22;19814;48.224;11.422;2023-04-09T00:38:21;5.50;99.90
33476;DHT22;19814;48.224;11.422;2023-04-09T00:40:50;5.60;99.90
33476;DHT22;19814;48.224;11.422;2023-04-09T00:43:16;5.70;99.90
33476;DHT22;19814;48.224;11.422;2023-04-09T00:45:43;5.70;99.90
33476;DHT22;19814;48.224;11.422;2023-04-09T00:48:08;5.70;99.90
33476;DHT22;19814;48.224;11.422;2023-04-09T00:50:35;5.60;99.90
33476;DHT22;19814;48.224;11.422;2023-04-09T00:53:00;5.60;99.90
33476;DHT22;19814;48.224;11.422;2023-04-09T00:55:26;5.50;99.90
33476;DHT22;19814;48.224;11.422;2023-04-09T00:57:52;5.50;99.90
33476;DHT22;19814;48.224;11.422;2023-04-09T01:00:17;5.40;99.90
33476;DHT22;19814;48.224;11.422;2023-04-09T01:02:43;5.40;99.90
33476;DHT22;19814;48.224;11.422;2023-04-09T01:05:09;5.40;99.90
33476;DHT22;19814;48.224;11.422;2023-04-09T01:13:28;5.20;99.90
33476;DHT22;19814;48.224;11.422;2023-04-09T01:15:56;5.20;99.90
33476;DHT22;19814;48.224;11.422;2023-04-09T01:18:37;5.20;99.90
33476;DHT22;19814;48.224;11.422;2023-04-09T01:21:08;5.30;99.90
33476;DHT22;19814;48.224;11.422;2023-04-09T01:26:44;5.30;99.90
33476;DHT22;19814;48.224;11.422;2023-04-09T01:29:14;5.40;99.90
33476;DHT22;19814;48.224;11.422;2023-04-09T01:31:41;5.60;99.90
33476;DHT22;19814;48.224;11.422;2023-04-09T01:34:08;5.60;99.90
33476;DHT22;19814;48.224;11.422;2023-04-09T01:36:34;5.70;99.90
33476;DHT22;19814;48.224;11.422;2023-04-09T01:39:02;5.60;99.90
33476;DHT22;19814;48.224;11.422;2023-04-09T01:41:31;5.40;99.90
33476;DHT22;19814;48.224;11.422;2023-04-09T01:43:58;5.40;99.90
33476;DHT22;19814;48.224;11.422;2023-04-09T01:46:26;5.30;99.90
33476;DHT22;19814;48.224;11.422;2023-04-09T01:48:52;5.20;99.90
33476;DHT22;19814;48.224;11.422;2023-04-09T01:51:18;5.30;99.90
33476;DHT22;19814;48.224;11.422;2023-04-09T01:53:44;5.30;99.90
33476;DHT22;19814;48.224;11.422;2023-04-09T01:56:09;5.40;99.90
33476;DHT22;19814;48.224;11.422;2023-04-09T01:58:35;5.40;99.90
33476;DHT22;19814;48.224;11.422;2023-04-09T02:01:28;5.30;99.90
33476;DHT22;19814;48.224;11.422;2023-04-09T02:04:01;5.30;99.90
33476;DHT22;19814;48.224;11.422;2023-04-09T02:08:59;5.40;99.90
33476;DHT22;19814;48.224;11.422;2023-04-09T02:11:28;5.40;99.90
33476;DHT22;19814;48.224;11.422;2023-04-09T02:13:54;5.30;99.90
33476;DHT22;19814;48.224;11.422;2023-04-09T02:16:21;5.40;99.90
33476;DHT22;19814;48.224;11.422;2023-04-09T02:18:52;5.40;99.90
33476;DHT22;19814;48.224;11.422;2023-04-09T02:21:18;5.40;99.90
33476;DHT22;19814;48.224;11.422;2023-04-09T02:23:44;5.50;99.90
33476;DHT22;19814;48.224;11.422;2023-04-09T02:26:10;5.50;99.90
33476;DHT22;19814;48.224;11.422;2023-04-09T02:28:35;5.40;99.90
33476;DHT22;19814;48.224;11.422;2023-04-09T02:31:01;5.30;99.90
33476;DHT22;19814;48.224;11.422;2023-04-09T02:33:26;5.30;99.90
33476;DHT22;19814;48.224;11.422;2023-04-09T02:35:52;5.30;99.90
33476;DHT22;19814;48.224;11.422;2023-04-09T02:38:18;5.20;99.90
33476;DHT22;19814;48.224;11.422;2023-04-09T02:40:43;5.30;99.90
33476;DHT22;19814;48.224;11.422;2023-04-09T02:43:09;5.30;99.90
33476;DHT22;19814;48.224;11.422;2023-04-09T02:45:35;5.30;99.90
33476;DHT22;19814;48.224;11.422;2023-04-09T02:48:00;5.20;99.90
33476;DHT22;19814;48.224;11.422;2023-04-09T02:50:26;5.20;99.90
33476;DHT22;19814;48.224;11.422;2023-04-09T02:52:51;5.30;99.90
33476;DHT22;19814;48.224;11.422;2023-04-09T02:55:18;5.30;99.90
33476;DHT22;19814;48.224;11.422;2023-04-09T02:57:43;5.20;99.90
33476;DHT22;19814;48.224;11.422;2023-04-09T03:00:09;5.20;99.90
33476;DHT22;19814;48.224;11.422;2023-04-09T03:02:35;5.10;99.90
33476;DHT22;19814;48.224;11.422;2023-04-09T03:05:01;5.10;99.90
33476;DHT22;19814;48.224;11.422;2023-04-09T03:07:27;5.10;99.90
33476;DHT22;19814;48.224;11.422;2023-04-09T03:09:52;5.10;99.90
33476;DHT22;19814;48.224;11.422;2023-04-09T03:12:17;5.00;99.90
33476;DHT22;19814;48.224;11.422;2023-04-09T03:14:43;4.90;99.90
33476;DHT22;19814;48.224;11.422;2023-04-09T03:17:08;5.00;99.90
33476;DHT22;19814;48.224;11.422;2023-04-09T03:19:34;5.10;99.90
33476;DHT22;19814;48.224;11.422;2023-04-09T03:22:00;5.20;99.90
33476;DHT22;19814;48.224;11.422;2023-04-09T03:24:26;5.20;99.90
33476;DHT22;19814;48.224;11.422;2023-04-09T03:26:51;5.20;99.90
33476;DHT22;19814;48.224;11.422;2023-04-09T03:29:16;5.10;99.90
33476;DHT22;19814;48.224;11.422;2023-04-09T03:31:42;5.00;99.90
33476;DHT22;19814;48.224;11.422;2023-04-09T03:34:07;4.90;99.90
33476;DHT22;19814;48.224;11.422;2023-04-09T03:36:33;4.90;99.90
33476;DHT22;19814;48.224;11.422;2023-04-09T03:38:59;5.00;99.90
33476;DHT22;19814;48.224;11.422;2023-04-09T03:41:25;5.00;99.90
33476;DHT22;19814;48.224;11.422;2023-04-09T03:43:52;5.00;99.90
33476;DHT22;19814;48.224;11.422;2023-04-09T03:46:17;5.00;99.90
33476;DHT22;19814;48.224;11.422;2023-04-09T03:48:43;5.10;99.90
33476;DHT22;19814;48.224;11.422;2023-04-09T03:51:13;5.10;99.90
33476;DHT22;19814;48.224;11.422;2023-04-09T03:53:39;5.00;99.90
33476;DHT22;19814;48.224;11.422;2023-04-09T03:56:06;4.80;99.90
33476;DHT22;19814;48.224;11.422;2023-04-09T03:58:32;4.50;99.90
33476;DHT22;19814;48.224;11.422;2023-04-09T04:00:57;4.50;99.90
33476;DHT22;19814;48.224;11.422;2023-04-09T04:03:23;4.50;99.90
33476;DHT22;19814;48.224;11.422;2023-04-09T04:05:48;4.50;99.90
33476;DHT22;19814;48.224;11.422;2023-04-09T04:08:14;4.50;99.90
33476;DHT22;19814;48.224;11.422;2023-04-09T04:10:39;4.50;99.90
33476;DHT22;19814;48.224;11.422;2023-04-09T04:13:05;4.50;99.90
33476;DHT22;19814;48.224;11.422;2023-04-09T04:15:33;4.40;99.90
33476;DHT22;19814;48.224;11.422;2023-04-09T04:17:58;4.40;99.90
33476;DHT22;19814;48.224;11.422;2023-04-09T04:20:24;4.30;99.90
33476;DHT22;19814;48.224;11.422;2023-04-09T04:22:50;4.40;99.90
33476;DHT22;19814;48.224;11.422;2023-04-09T04:25:16;4.50;99.90
33476;DHT22;19814;48.224;11.422;2023-04-09T04:27:41;4.50;99.90
33476;DHT22;19814;48.224;11.422;2023-04-09T04:30:07;4.50;99.90
33476;DHT22;19814;48.224;11.422;2023-04-09T04:32:33;4.50;99.90
33476;DHT22;19814;48.224;11.422;2023-04-09T04:34:58;4.50;99.90
33476;DHT22;19814;48.224;11.422;2023-04-09T04:37:24;4.50;99.90
33476;DHT22;19814;48.224;11.422;2023-04-09T04:39:50;4.50;99.90
33476;DHT22;19814;48.224;11.422;2023-04-09T04:42:16;4.40;99.90
33476;DHT22;19814;48.224;11.422;2023-04-09T04:44:42;4.50;99.90
33476;DHT22;19814;48.224;11.422;2023-04-09T04:47:07;4.40;99.90
33476;DHT22;19814;48.224;11.422;2023-04-09T04:49:33;4.30;99.90
33476;DHT22;19814;48.224;11.422;2023-04-09T04:51:59;4.20;99.90
33476;DHT22;19814;48.224;11.422;2023-04-09T04:54:24;4.20;99.90
33476;DHT22;19814;48.224;11.422;2023-04-09T04:56:50;4.30;99.90
33476;DHT22;19814;48.224;11.422;2023-04-09T04:59:15;4.20;99.90
33476;DHT22;19814;48.224;11.422;2023-04-09T05:01:41;4.30;99.90
33476;DHT22;19814;48.224;11.422;2023-04-09T05:04:06;4.20;99.90
33476;DHT22;19814;48.224;11.422;2023-04-09T05:06:32;4.20;99.90
33476;DHT22;19814;48.224;11.422;2023-04-09T05:08:57;4.20;99.90
33476;DHT22;19814;48.224;11.422;2023-04-09T05:11:24;4.20;99.90
33476;DHT22;19814;48.224;11.422;2023-04-09T05:13:49;4.20;99.90
33476;DHT22;19814;48.224;11.422;2023-04-09T05:16:17;4.30;99.90
33476;DHT22;19814;48.224;11.422;2023-04-09T05:18:42;4.30;99.90
33476;DHT22;19814;48.224;11.422;2023-04-09T05:21:08;4.40;99.90
33476;DHT22;19814;48.224;11.422;2023-04-09T05:23:33;4.40;99.90
33476;DHT22;19814;48.224;11.422;2023-04-09T05:25:59;4.40;99.90
33476;DHT22;19814;48.224;11.422;2023-04-09T05:28:25;4.40;99.90
33476;DHT22;19814;48.224;11.422;2023-04-09T05:30:50;4.40;99.90
33476;DHT22;19814;48.224;11.422;2023-04-09T05:33:16;4.40;99.90
33476;DHT22;19814;48.224;11.422;2023-04-09T05:35:41;4.40;99.90
33476;DHT22;19814;48.224;11.422;2023-04-09T05:38:07;4.40;99.90
33476;DHT22;19814;48.224;11.422;2023-04-09T05:40:32;4.40;99.90
33476;DHT22;19814;48.224;11.422;2023-04-09T05:42:58;4.50;99.90
33476;DHT22;19814;48.224;11.422;2023-04-09T05:45:23;4.60;99.90
33476;DHT22;19814;48.224;11.422;2023-04-09T05:47:49;4.50;99.90
33476;DHT22;19814;48.224;11.422;2023-04-09T05:50:15;4.60;99.90
33476;DHT22;19814;48.224;11.422;2023-04-09T05:52:40;4.60;99.90
33476;DHT22;19814;48.224;11.422;2023-04-09T05:55:06;4.70;99.90
33476;DHT22;19814;48.224;11.422;2023-04-09T05:57:34;4.80;99.90
33476;DHT22;19814;48.224;11.422;2023-04-09T05:59:59;5.00;99.90
33476;DHT22;19814;48.224;11.422;2023-04-09T06:02:25;5.20;99.90
33476;DHT22;19814;48.224;11.422;2023-04-09T06:04:51;5.40;99.90
33476;DHT22;19814;48.224;11.422;2023-04-09T06:07:16;5.60;99.90
33476;DHT22;19814;48.224;11.422;2023-04-09T06:09:42;5.70;99.90
33476;DHT22;19814;48.224;11.422;2023-04-09T06:12:14;5.90;99.90
33476;DHT22;19814;48.224;11.422;2023-04-09T06:14:40;6.10;99.90
33476;DHT22;19814;48.224;11.422;2023-04-09T06:17:05;6.40;99.90
33476;DHT22;19814;48.224;11.422;2023-04-09T06:19:31;6.60;99.90
33476;DHT22;19814;48.224;11.422;2023-04-09T06:21:56;6.90;99.90
33476;DHT22;19814;48.224;11.422;2023-04-09T06:24:22;7.10;99.90
33476;DHT22;19814;48.224;11.422;2023-04-09T06:26:48;7.40;99.90
33476;DHT22;19814;48.224;11.422;2023-04-09T06:29:13;7.60;99.90
33476;DHT22;19814;48.224;11.422;2023-04-09T06:31:39;7.90;99.90
33476;DHT22;19814;48.224;11.422;2023-04-09T06:34:04;8.10;99.90
33476;DHT22;19814;48.224;11.422;2023-04-09T06:36:31;8.40;99.90
33476;DHT22;19814;48.224;11.422;2023-04-09T06:38:57;8.50;99.90
33476;DHT22;19814;48.224;11.422;2023-04-09T06:41:23;8.50;99.90
33476;DHT22;19814;48.224;11.422;2023-04-09T06:43:49;8.50;99.90
33476;DHT22;19814;48.224;11.422;2023-04-09T06:46:15;8.20;99.90
33476;DHT22;19814;48.224;11.422;2023-04-09T06:48:42;8.20;99.90
33476;DHT22;19814;48.224;11.422;2023-04-09T06:51:09;8.20;99.90
33476;DHT22;19814;48.224;11.422;2023-04-09T06:53:36;8.30;99.90
33476;DHT22;19814;48.224;11.422;2023-04-09T06:56:02;8.40;99.90
33476;DHT22;19814;48.224;11.422;2023-04-09T06:58:28;8.70;99.90
33476;DHT22;19814;48.224;11.422;2023-04-09T07:00:53;9.00;99.90
33476;DHT22;19814;48.224;11.422;2023-04-09T07:03:19;9.40;99.90
33476;DHT22;19814;48.224;11.422;2023-04-09T07:05:45;10.10;99.90
33476;DHT22;19814;48.224;11.422;2023-04-09T07:08:10;10.60;99.80
33476;DHT22;19814;48.224;11.422;2023-04-09T07:10:36;10.60;98.70
33476;DHT22;19814;48.224;11.422;2023-04-09T07:13:02;10.50;99.40
33476;DHT22;19814;48.224;11.422;2023-04-09T07:15:27;10.70;98.30
33476;DHT22;19814;48.224;11.422;2023-04-09T07:17:53;11.00;97.50
33476;DHT22;19814;48.224;11.422;2023-04-09T07:20:18;11.20;97.10
33476;DHT22;19814;48.224;11.422;2023-04-09T07:22:44;11.10;97.30
33476;DHT22;19814;48.224;11.422;2023-04-09T07:25:10;10.90;95.90
33476;DHT22;19814;48.224;11.422;2023-04-09T07:27:35;10.80;97.70
33476;DHT22;19814;48.224;11.422;2023-04-09T07:30:01;11.30;96.50
33476;DHT22;19814;48.224;11.422;2023-04-09T07:32:27;11.40;96.30
33476;DHT22;19814;48.224;11.422;2023-04-09T07:34:54;11.90;95.30
33476;DHT22;19814;48.224;11.422;2023-04-09T07:37:20;12.30;94.20
33476;DHT22;19814;48.224;11.422;2023-04-09T07:39:46;12.60;94.70
33476;DHT22;19814;48.224;11.422;2023-04-09T07:42:12;12.90;93.50
33476;DHT22;19814;48.224;11.422;2023-04-09T07:44:38;13.40;93.30
33476;DHT22;19814;48.224;11.422;2023-04-09T07:47:04;13.70;92.00
33476;DHT22;19814;48.224;11.422;2023-04-09T07:49:31;13.20;92.50
33476;DHT22;19814;48.224;11.422;2023-04-09T07:51:58;12.60;91.30
33476;DHT22;19814;48.224;11.422;2023-04-09T07:54:23;12.50;92.00
33476;DHT22;19814;48.224;11.422;2023-04-09T07:56:49;13.20;90.40
33476;DHT22;19814;48.224;11.422;2023-04-09T07:59:15;13.40;90.50
33476;DHT22;19814;48.224;11.422;2023-04-09T08:01:41;13.80;89.10
33476;DHT22;19814;48.224;11.422;2023-04-09T08:04:07;14.00;87.70
33476;DHT22;19814;48.224;11.422;2023-04-09T08:06:33;14.40;84.50
33476;DHT22;19814;48.224;11.422;2023-04-09T08:08:58;14.20;87.50
33476;DHT22;19814;48.224;11.422;2023-04-09T08:11:24;14.80;89.20
33476;DHT22;19814;48.224;11.422;2023-04-09T08:13:53;14.80;83.10
33476;DHT22;19814;48.224;11.422;2023-04-09T08:16:19;15.00;85.70
33476;DHT22;19814;48.224;11.422;2023-04-09T08:18:46;15.00;82.50
33476;DHT22;19814;48.224;11.422;2023-04-09T08:21:11;15.40;82.60
33476;DHT22;19814;48.224;11.422;2023-04-09T08:23:37;16.60;79.20
33476;DHT22;19814;48.224;11.422;2023-04-09T08:26:03;17.40;74.40
33476;DHT22;19814;48.224;11.422;2023-04-09T08:28:28;17.20;71.80
33476;DHT22;19814;48.224;11.422;2023-04-09T08:30:54;17.40;72.20
33476;DHT22;19814;48.224;11.422;2023-04-09T08:33:20;17.90;71.80
33476;DHT22;19814;48.224;11.422;2023-04-09T08:35:45;18.70;68.60
33476;DHT22;19814;48.224;11.422;2023-04-09T08:38:11;17.60;68.60
33476;DHT22;19814;48.224;11.422;2023-04-09T08:40:36;17.50;68.30
33476;DHT22;19814;48.224;11.422;2023-04-09T08:43:04;16.90;68.80
33476;DHT22;19814;48.224;11.422;2023-04-09T08:45:31;15.60;72.00
33476;DHT22;19814;48.224;11.422;2023-04-09T08:47:57;15.90;71.40
33476;DHT22;19814;48.224;11.422;2023-04-09T08:50:27;16.40;69.80
33476;DHT22;19814;48.224;11.422;2023-04-09T08:52:53;17.00;66.90
33476;DHT22;19814;48.224;11.422;2023-04-09T08:55:21;17.50;68.50
33476;DHT22;19814;48.224;11.422;2023-04-09T08:57:46;18.00;64.30
33476;DHT22;19814;48.224;11.422;2023-04-09T09:00:12;17.70;63.60
33476;DHT22;19814;48.224;11.422;2023-04-09T09:02:38;17.60;65.30
33476;DHT22;19814;48.224;11.422;2023-04-09T09:05:04;17.40;65.30
33476;DHT22;19814;48.224;11.422;2023-04-09T09:07:30;17.50;66.50
33476;DHT22;19814;48.224;11.422;2023-04-09T09:09:57;18.80;63.10
33476;DHT22;19814;48.224;11.422;2023-04-09T09:12:38;19.70;62.40
33476;DHT22;19814;48.224;11.422;2023-04-09T09:15:24;20.50;59.00
33476;DHT22;19814;48.224;11.422;2023-04-09T09:17:55;20.00;59.80
33476;DHT22;19814;48.224;11.422;2023-04-09T09:20:22;19.20;57.30
33476;DHT22;19814;48.224;11.422;2023-04-09T09:22:52;18.00;60.00
33476;DHT22;19814;48.224;11.422;2023-04-09T09:25:18;16.60;64.00
33476;DHT22;19814;48.224;11.422;2023-04-09T09:27:47;15.80;64.10
33476;DHT22;19814;48.224;11.422;2023-04-09T09:30:25;15.20;66.10
33476;DHT22;19814;48.224;11.422;2023-04-09T09:33:08;14.80;68.50
33476;DHT22;19814;48.224;11.422;2023-04-09T09:35:51;14.40;69.60
33476;DHT22;19814;48.224;11.422;2023-04-09T09:38:18;15.10;72.10
33476;DHT22;19814;48.224;11.422;2023-04-09T09:40:44;16.10;68.70
33476;DHT22;19814;48.224;11.422;2023-04-09T09:43:10;15.90;66.80
33476;DHT22;19814;48.224;11.422;2023-04-09T09:45:36;15.80;67.80
33476;DHT22;19814;48.224;11.422;2023-04-09T09:48:04;15.40;67.60
33476;DHT22;19814;48.224;11.422;2023-04-09T09:50:30;15.70;70.30
33476;DHT22;19814;48.224;11.422;2023-04-09T09:53:06;15.90;66.50
33476;DHT22;19814;48.224;11.422;2023-04-09T09:55:33;16.40;66.60
33476;DHT22;19814;48.224;11.422;2023-04-09T09:58:06;17.50;65.60
33476;DHT22;19814;48.224;11.422;2023-04-09T10:00:36;19.00;64.60
33476;DHT22;19814;48.224;11.422;2023-04-09T10:03:30;20.70;60.90
33476;DHT22;19814;48.224;11.422;2023-04-09T10:06:00;21.90;57.00
33476;DHT22;19814;48.224;11.422;2023-04-09T10:08:27;23.20;54.40
33476;DHT22;19814;48.224;11.422;2023-04-09T10:10:54;23.80;50.00
33476;DHT22;19814;48.224;11.422;2023-04-09T10:13:36;23.00;51.10
33476;DHT22;19814;48.224;11.422;2023-04-09T10:16:03;22.00;51.80
33476;DHT22;19814;48.224;11.422;2023-04-09T10:18:30;21.40;51.80
33476;DHT22;19814;48.224;11.422;2023-04-09T10:21:13;20.20;51.60
33476;DHT22;19814;48.224;11.422;2023-04-09T10:23:43;18.70;55.70
33476;DHT22;19814;48.224;11.422;2023-04-09T10:26:09;17.90;56.90
33476;DHT22;19814;48.224;11.422;2023-04-09T10:28:36;17.20;57.20
33476;DHT22;19814;48.224;11.422;2023-04-09T10:31:04;16.50;59.40
33476;DHT22;19814;48.224;11.422;2023-04-09T10:33:30;16.20;60.60
33476;DHT22;19814;48.224;11.422;2023-04-09T10:36:02;15.60;62.40
33476;DHT22;19814;48.224;11.422;2023-04-09T10:38:33;15.20;62.60
33476;DHT22;19814;48.224;11.422;2023-04-09T10:41:06;15.40;62.90
33476;DHT22;19814;48.224;11.422;2023-04-09T10:43:34;16.10;61.40
33476;DHT22;19814;48.224;11.422;2023-04-09T10:46:00;15.80;63.50
33476;DHT22;19814;48.224;11.422;2023-04-09T10:48:31;15.60;64.50
33476;DHT22;19814;48.224;11.422;2023-04-09T10:50:57;16.10;60.90
33476;DHT22;19814;48.224;11.422;2023-04-09T10:53:24;16.10;63.10
33476;DHT22;19814;48.224;11.422;2023-04-09T10:55:51;15.80;61.10
33476;DHT22;19814;48.224;11.422;2023-04-09T10:58:18;15.50;60.10
33476;DHT22;19814;48.224;11.422;2023-04-09T11:00:46;15.30;64.70
33476;DHT22;19814;48.224;11.422;2023-04-09T11:03:26;15.70;64.30
33476;DHT22;19814;48.224;11.422;2023-04-09T11:05:57;17.90;61.40
33476;DHT22;19814;48.224;11.422;2023-04-09T11:08:27;20.70;55.80
33476;DHT22;19814;48.224;11.422;2023-04-09T11:10:53;21.70;50.90
33476;DHT22;19814;48.224;11.422;2023-04-09T11:13:22;21.90;51.60
33476;DHT22;19814;48.224;11.422;2023-04-09T11:15:48;20.70;51.10
33476;DHT22;19814;48.224;11.422;2023-04-09T11:18:22;20.00;52.20
33476;DHT22;19814;48.224;11.422;2023-04-09T11:20:47;18.50;56.90
33476;DHT22;19814;48.224;11.422;2023-04-09T11:23:14;17.50;57.60
33476;DHT22;19814;48.224;11.422;2023-04-09T11:25:40;16.80;58.40
33476;DHT22;19814;48.224;11.422;2023-04-09T11:28:06;16.60;60.10
33476;DHT22;19814;48.224;11.422;2023-04-09T11:30:32;16.60;59.70
33476;DHT22;19814;48.224;11.422;2023-04-09T11:32:58;16.40;59.40
33476;DHT22;19814;48.224;11.422;2023-04-09T11:35:24;16.10;62.40
33476;DHT22;19814;48.224;11.422;2023-04-09T11:37:49;16.30;58.70
33476;DHT22;19814;48.224;11.422;2023-04-09T11:40:21;15.70;60.40
33476;DHT22;19814;48.224;11.422;2023-04-09T11:42:52;15.20;62.20
33476;DHT22;19814;48.224;11.422;2023-04-09T11:45:21;14.50;61.90
33476;DHT22;19814;48.224;11.422;2023-04-09T11:47:47;14.20;64.00
33476;DHT22;19814;48.224;11.422;2023-04-09T11:50:13;14.40;62.70
33476;DHT22;19814;48.224;11.422;2023-04-09T11:52:40;14.70;61.10
33476;DHT22;19814;48.224;11.422;2023-04-09T11:55:07;14.60;62.20
33476;DHT22;19814;48.224;11.422;2023-04-09T11:57:43;14.50;63.50
33476;DHT22;19814;48.224;11.422;2023-04-09T12:02:45;14.30;62.20
33476;DHT22;19814;48.224;11.422;2023-04-09T12:05:19;14.00;61.90
33476;DHT22;19814;48.224;11.422;2023-04-09T12:07:45;13.50;64.40
33476;DHT22;19814;48.224;11.422;2023-04-09T12:10:10;13.70;63.50
33476;DHT22;19814;48.224;11.422;2023-04-09T12:12:45;14.00;64.50
33476;DHT22;19814;48.224;11.422;2023-04-09T12:15:19;14.40;62.00
33476;DHT22;19814;48.224;11.422;2023-04-09T12:17:52;14.40;62.30
33476;DHT22;19814;48.224;11.422;2023-04-09T12:22:56;13.80;63.20
33476;DHT22;19814;48.224;11.422;2023-04-09T12:25:22;13.50;64.60
33476;DHT22;19814;48.224;11.422;2023-04-09T12:27:48;13.20;65.70
33476;DHT22;19814;48.224;11.422;2023-04-09T12:30:13;13.20;65.80
33476;DHT22;19814;48.224;11.422;2023-04-09T12:32:39;13.10;66.40
33476;DHT22;19814;48.224;11.422;2023-04-09T12:35:04;13.40;67.40
33476;DHT22;19814;48.224;11.422;2023-04-09T12:37:30;13.80;66.30
33476;DHT22;19814;48.224;11.422;2023-04-09T12:39:56;14.40;66.80
33476;DHT22;19814;48.224;11.422;2023-04-09T12:42:21;14.80;63.30
33476;DHT22;19814;48.224;11.422;2023-04-09T12:44:47;15.30;64.70
33476;DHT22;19814;48.224;11.422;2023-04-09T12:47:12;15.00;60.80
33476;DHT22;19814;48.224;11.422;2023-04-09T12:49:38;14.80;63.90
33476;DHT22;19814;48.224;11.422;2023-04-09T12:52:03;14.70;64.20
33476;DHT22;19814;48.224;11.422;2023-04-09T12:54:29;14.80;63.60
33476;DHT22;19814;48.224;11.422;2023-04-09T12:56:55;14.60;65.20
33476;DHT22;19814;48.224;11.422;2023-04-09T12:59:21;14.40;63.70
33476;DHT22;19814;48.224;11.422;2023-04-09T13:01:46;14.00;65.00
33476;DHT22;19814;48.224;11.422;2023-04-09T13:04:12;14.30;65.20
33476;DHT22;19814;48.224;11.422;2023-04-09T13:06:37;14.10;67.50
33476;DHT22;19814;48.224;11.422;2023-04-09T13:09:03;14.50;68.30
33476;DHT22;19814;48.224;11.422;2023-04-09T13:11:28;15.20;66.80
33476;DHT22;19814;48.224;11.422;2023-04-09T13:13:54;15.10;63.80
33476;DHT22;19814;48.224;11.422;2023-04-09T13:16:19;14.80;63.90
33476;DHT22;19814;48.224;11.422;2023-04-09T13:18:45;14.50;65.10
33476;DHT22;19814;48.224;11.422;2023-04-09T13:21:10;15.00;64.50
33476;DHT22;19814;48.224;11.422;2023-04-09T13:23:39;15.10;63.40
33476;DHT22;19814;48.224;11.422;2023-04-09T13:26:04;14.90;63.50
33476;DHT22;19814;48.224;11.422;2023-04-09T13:28:30;14.60;64.10
33476;DHT22;19814;48.224;11.422;2023-04-09T13:30:56;14.20;64.80
33476;DHT22;19814;48.224;11.422;2023-04-09T13:33:21;14.00;66.60
33476;DHT22;19814;48.224;11.422;2023-04-09T13:35:47;14.00;66.30
33476;DHT22;19814;48.224;11.422;2023-04-09T13:38:12;13.90;66.70
33476;DHT22;19814;48.224;11.422;2023-04-09T13:40:38;13.30;68.60
33476;DHT22;19814;48.224;11.422;2023-04-09T13:43:03;12.80;70.40
33476;DHT22;19814;48.224;11.422;2023-04-09T13:45:29;12.40;70.70
33476;DHT22;19814;48.224;11.422;2023-04-09T13:47:55;12.20;71.20
33476;DHT22;19814;48.224;11.422;2023-04-09T13:50:20;12.20;72.20
33476;DHT22;19814;48.224;11.422;2023-04-09T13:52:46;12.30;72.50
33476;DHT22;19814;48.224;11.422;2023-04-09T13:55:11;12.30;73.10
33476;DHT22;19814;48.224;11.422;2023-04-09T13:57:37;12.60;73.70
33476;DHT22;19814;48.224;11.422;2023-04-09T14:00:02;12.60;72.00
33476;DHT22;19814;48.224;11.422;2023-04-09T14:02:30;12.70;71.10
33476;DHT22;19814;48.224;11.422;2023-04-09T14:04:56;12.70;71.00
33476;DHT22;19814;48.224;11.422;2023-04-09T14:07:21;12.40;71.60
33476;DHT22;19814;48.224;11.422;2023-04-09T14:09:47;12.10;72.40
33476;DHT22;19814;48.224;11.422;2023-04-09T14:12:13;11.90;74.20
33476;DHT22;19814;48.224;11.422;2023-04-09T14:14:38;11.90;75.40
33476;DHT22;19814;48.224;11.422;2023-04-09T14:17:04;12.00;75.00
33476;DHT22;19814;48.224;11.422;2023-04-09T14:19:29;12.10;74.40
33476;DHT22;19814;48.224;11.422;2023-04-09T14:21:55;12.10;74.20
33476;DHT22;19814;48.224;11.422;2023-04-09T14:24:20;12.30;73.30
33476;DHT22;19814;48.224;11.422;2023-04-09T14:26:48;12.50;73.00
33476;DHT22;19814;48.224;11.422;2023-04-09T14:29:14;12.80;74.00
33476;DHT22;19814;48.224;11.422;2023-04-09T14:31:40;13.00;74.50
33476;DHT22;19814;48.224;11.422;2023-04-09T14:34:07;13.30;71.40
33476;DHT22;19814;48.224;11.422;2023-04-09T14:36:32;13.00;73.90
33476;DHT22;19814;48.224;11.422;2023-04-09T14:38:58;13.00;70.80
33476;DHT22;19814;48.224;11.422;2023-04-09T14:41:24;13.00;70.10
33476;DHT22;19814;48.224;11.422;2023-04-09T14:43:50;12.80;71.80
33476;DHT22;19814;48.224;11.422;2023-04-09T14:46:15;12.70;69.10
33476;DHT22;19814;48.224;11.422;2023-04-09T14:48:41;12.40;70.80
33476;DHT22;19814;48.224;11.422;2023-04-09T14:51:09;12.00;75.00
33476;DHT22;19814;48.224;11.422;2023-04-09T14:53:35;12.00;76.00
33476;DHT22;19814;48.224;11.422;2023-04-09T14:56:00;12.00;72.40
33476;DHT22;19814;48.224;11.422;2023-04-09T14:58:26;12.10;73.60
33476;DHT22;19814;48.224;11.422;2023-04-09T15:00:51;12.30;71.50
33476;DHT22;19814;48.224;11.422;2023-04-09T15:03:17;12.20;72.90
33476;DHT22;19814;48.224;11.422;2023-04-09T15:05:43;12.30;74.30
33476;DHT22;19814;48.224;11.422;2023-04-09T15:08:08;12.60;71.50
33476;DHT22;19814;48.224;11.422;2023-04-09T15:10:35;12.50;71.50
33476;DHT22;19814;48.224;11.422;2023-04-09T15:13:01;12.70;71.90
33476;DHT22;19814;48.224;11.422;2023-04-09T15:15:26;12.40;71.40
33476;DHT22;19814;48.224;11.422;2023-04-09T15:17:52;12.30;70.10
33476;DHT22;19814;48.224;11.422;2023-04-09T15:20:17;12.20;72.20
33476;DHT22;19814;48.224;11.422;2023-04-09T15:22:43;12.00;74.60
33476;DHT22;19814;48.224;11.422;2023-04-09T15:25:09;11.90;74.00
33476;DHT22;19814;48.224;11.422;2023-04-09T15:27:34;11.70;74.20
33476;DHT22;19814;48.224;11.422;2023-04-09T15:30:00;11.50;75.00
33476;DHT22;19814;48.224;11.422;2023-04-09T15:32:25;11.40;73.40
33476;DHT22;19814;48.224;11.422;2023-04-09T15:34:52;11.10;76.70
33476;DHT22;19814;48.224;11.422;2023-04-09T15:37:18;11.10;75.70